sensor_id;sensor_type;location;lat;lon;timestamp;pressure;altitude;pressure_sealevel;temperature;humidity
78409;BME280;67697;50.750;-3.270;2023-04-03T00:01:34;102318.13;;;7.42;50.93
78409;BME280;67697;50.750;-3.270;2023-04-03T00:04:00;102318.09;;;7.75;50.12
78409;BME280;67697;50.750;-3.270;2023-04-03T00:06:26;102316.73;;;7.36;50.60
78409;BME280;67697;50.750;-3.270;2023-04-03T00:08:51;102317.13;;;7.41;50.23
78409;BME280;67697;50.750;-3.270;2023-04-03T00:11:17;102319.38;;;7.36;51.08
78409;BME280;67697;50.750;-3.270;2023-04-03T00:13:42;102320.16;;;7.08;51.51
78409;BME280;67697;50.750;-3.270;2023-04-03T00:16:08;102314.63;;;7.83;49.58
78409;BME280;67697;50.750;-3.270;2023-04-03T00:18:32;102309.61;;;8.12;49.22
78409;BME280;67697;50.750;-3.270;2023-04-03T00:20:58;102307.61;;;7.16;51.27
78409;BME280;67697;50.750;-3.270;2023-04-03T00:23:24;102310.40;;;6.49;51.22
78409;BME280;67697;50.750;-3.270;2023-04-03T00:25:49;102309.45;;;6.60;51.01
78409;BME280;67697;50.750;-3.270;2023-04-03T00:28:15;102305.65;;;6.89;50.82
78409;BME280;67697;50.750;-3.270;2023-04-03T00:30:41;102297.54;;;7.15;50.96
78409;BME280;67697;50.750;-3.270;2023-04-03T00:33:06;102293.17;;;8.06;49.78
78409;BME280;67697;50.750;-3.270;2023-04-03T00:35:32;102290.22;;;8.06;49.53
78409;BME280;67697;50.750;-3.270;2023-04-03T00:37:58;102290.67;;;7.76;49.65
78409;BME280;67697;50.750;-3.270;2023-04-03T00:40:24;102298.13;;;5.90;54.73
78409;BME280;67697;50.750;-3.270;2023-04-03T00:42:51;102299.43;;;5.99;53.69
78409;BME280;67697;50.750;-3.270;2023-04-03T00:45:30;102295.66;;;6.38;53.45
78409;BME280;67697;50.750;-3.270;2023-04-03T00:47:39;102295.80;;;6.23;53.36
78409;BME280;67697;50.750;-3.270;2023-04-03T00:50:05;102293.32;;;6.46;51.98
78409;BME280;67697;50.750;-3.270;2023-04-03T00:52:30;102294.06;;;6.35;52.22
78409;BME280;67697;50.750;-3.270;2023-04-03T00:54:58;102292.03;;;7.47;49.70
78409;BME280;67697;50.750;-3.270;2023-04-03T00:57:21;102292.24;;;7.18;49.98
78409;BME280;67697;50.750;-3.270;2023-04-03T00:59:50;102290.72;;;8.48;47.58
78409;BME280;67697;50.750;-3.270;2023-04-03T01:02:12;102292.04;;;7.89;48.42
78409;BME280;67697;50.750;-3.270;2023-04-03T01:04:39;102294.43;;;6.88;49.57
78409;BME280;67697;50.750;-3.270;2023-04-03T01:07:06;102292.67;;;7.04;49.92
78409;BME280;67697;50.750;-3.270;2023-04-03T01:09:28;102296.51;;;7.22;50.10
78409;BME280;67697;50.750;-3.270;2023-04-03T01:11:53;102298.75;;;4.48;55.22
78409;BME280;67697;50.750;-3.270;2023-04-03T01:14:19;102293.19;;;7.31;50.70
78409;BME280;67697;50.750;-3.270;2023-04-03T01:16:52;102294.21;;;6.43;51.91
78409;BME280;67697;50.750;-3.270;2023-04-03T01:19:12;102292.80;;;6.71;49.65
78409;BME280;67697;50.750;-3.270;2023-04-03T01:21:51;102290.29;;;7.35;49.20
78409;BME280;67697;50.750;-3.270;2023-04-03T01:24:08;102290.12;;;7.63;48.59
78409;BME280;67697;50.750;-3.270;2023-04-03T01:26:26;102293.24;;;6.82;50.74
78409;BME280;67697;50.750;-3.270;2023-04-03T01:28:51;102295.38;;;6.76;49.82
78409;BME280;67697;50.750;-3.270;2023-04-03T01:31:21;102293.13;;;7.10;49.90
78409;BME280;67697;50.750;-3.270;2023-04-03T01:33:42;102294.56;;;8.33;46.91
78409;BME280;67697;50.750;-3.270;2023-04-03T01:36:08;102295.40;;;7.48;48.04
78409;BME280;67697;50.750;-3.270;2023-04-03T01:38:33;102292.37;;;7.10;49.18
78409;BME280;67697;50.750;-3.270;2023-04-03T01:40:59;102294.54;;;7.48;48.79
78409;BME280;67697;50.750;-3.270;2023-04-03T01:43:24;102298.04;;;6.30;51.77
78409;BME280;67697;50.750;-3.270;2023-04-03T01:45:49;102295.80;;;6.70;51.38
78409;BME280;67697;50.750;-3.270;2023-04-03T01:48:16;102299.23;;;5.86;52.13
78409;BME280;67697;50.750;-3.270;2023-04-03T01:50:41;102295.22;;;5.52;54.00
78409;BME280;67697;50.750;-3.270;2023-04-03T01:53:07;102295.31;;;5.13;55.07
78409;BME280;67697;50.750;-3.270;2023-04-03T01:55:32;102297.08;;;3.54;59.07
78409;BME280;67697;50.750;-3.270;2023-04-03T01:57:58;102295.72;;;4.27;57.35
78409;BME280;67697;50.750;-3.270;2023-04-03T02:00:24;102296.65;;;3.31;60.46
78409;BME280;67697;50.750;-3.270;2023-04-03T02:02:50;102295.06;;;2.87;62.58
78409;BME280;67697;50.750;-3.270;2023-04-03T02:05:15;102296.89;;;2.34;63.84
78409;BME280;67697;50.750;-3.270;2023-04-03T02:07:41;102304.59;;;2.07;65.58
78409;BME280;67697;50.750;-3.270;2023-04-03T02:10:07;102301.88;;;3.73;61.95
78409;BME280;67697;50.750;-3.270;2023-04-03T02:12:32;102305.35;;;3.22;61.76
78409;BME280;67697;50.750;-3.270;2023-04-03T02:14:58;102307.11;;;3.74;60.89
78409;BME280;67697;50.750;-3.270;2023-04-03T02:17:24;102305.67;;;2.96;62.77
78409;BME280;67697;50.750;-3.270;2023-04-03T02:19:49;102302.65;;;2.91;62.19
78409;BME280;67697;50.750;-3.270;2023-04-03T02:22:15;102304.61;;;3.67;61.32
78409;BME280;67697;50.750;-3.270;2023-04-03T02:24:41;102308.60;;;2.55;64.43
78409;BME280;67697;50.750;-3.270;2023-04-03T02:27:07;102306.52;;;2.99;64.31
78409;BME280;67697;50.750;-3.270;2023-04-03T02:29:32;102301.85;;;4.06;62.22
78409;BME280;67697;50.750;-3.270;2023-04-03T02:31:58;102299.12;;;3.44;62.61
78409;BME280;67697;50.750;-3.270;2023-04-03T02:34:24;102301.37;;;3.33;62.22
78409;BME280;67697;50.750;-3.270;2023-04-03T02:36:50;102301.51;;;4.67;60.33
78409;BME280;67697;50.750;-3.270;2023-04-03T02:39:15;102303.84;;;3.23;63.81
78409;BME280;67697;50.750;-3.270;2023-04-03T02:41:41;102301.20;;;3.81;63.56
78409;BME280;67697;50.750;-3.270;2023-04-03T02:44:08;102297.11;;;3.29;63.76
78409;BME280;67697;50.750;-3.270;2023-04-03T02:46:32;102299.80;;;2.86;66.66
78409;BME280;67697;50.750;-3.270;2023-04-03T02:48:57;102303.53;;;2.36;69.63
78409;BME280;67697;50.750;-3.270;2023-04-03T02:51:24;102299.10;;;2.76;67.60
78409;BME280;67697;50.750;-3.270;2023-04-03T02:53:49;102297.20;;;3.16;66.89
78409;BME280;67697;50.750;-3.270;2023-04-03T02:56:15;102296.42;;;3.02;67.43
78409;BME280;67697;50.750;-3.270;2023-04-03T02:58:40;102301.20;;;1.98;69.65
78409;BME280;67697;50.750;-3.270;2023-04-03T03:01:06;102302.70;;;2.53;69.92
78409;BME280;67697;50.750;-3.270;2023-04-03T03:03:32;102302.10;;;3.12;68.09
78409;BME280;67697;50.750;-3.270;2023-04-03T03:06:02;102299.23;;;2.30;70.40
78409;BME280;67697;50.750;-3.270;2023-04-03T03:08:23;102293.47;;;3.88;65.70
78409;BME280;67697;50.750;-3.270;2023-04-03T03:10:48;102294.27;;;3.03;69.44
78409;BME280;67697;50.750;-3.270;2023-04-03T03:13:14;102287.94;;;4.01;66.41
78409;BME280;67697;50.750;-3.270;2023-04-03T03:15:39;102290.30;;;2.38;70.24
78409;BME280;67697;50.750;-3.270;2023-04-03T03:18:05;102291.00;;;3.02;67.63
78409;BME280;67697;50.750;-3.270;2023-04-03T03:20:31;102292.01;;;3.90;65.32
78409;BME280;67697;50.750;-3.270;2023-04-03T03:22:57;102288.18;;;4.36;63.69
78409;BME280;67697;50.750;-3.270;2023-04-03T03:25:22;102288.88;;;4.21;62.74
78409;BME280;67697;50.750;-3.270;2023-04-03T03:27:48;102294.38;;;3.33;67.30
78409;BME280;67697;50.750;-3.270;2023-04-03T03:30:13;102296.58;;;2.82;67.96
78409;BME280;67697;50.750;-3.270;2023-04-03T03:32:38;102298.94;;;2.32;70.47
78409;BME280;67697;50.750;-3.270;2023-04-03T03:35:05;102295.81;;;4.14;64.84
78409;BME280;67697;50.750;-3.270;2023-04-03T03:37:30;102289.55;;;4.20;64.85
78409;BME280;67697;50.750;-3.270;2023-04-03T03:39:56;102289.79;;;4.59;63.64
78409;BME280;67697;50.750;-3.270;2023-04-03T03:42:21;102287.09;;;2.62;66.75
78409;BME280;67697;50.750;-3.270;2023-04-03T03:44:46;102285.23;;;4.77;61.12
78409;BME280;67697;50.750;-3.270;2023-04-03T03:47:12;102280.28;;;4.31;62.41
78409;BME280;67697;50.750;-3.270;2023-04-03T03:49:38;102279.57;;;4.97;60.64
78409;BME280;67697;50.750;-3.270;2023-04-03T03:52:04;102277.61;;;5.54;58.50
78409;BME280;67697;50.750;-3.270;2023-04-03T03:54:29;102271.80;;;5.46;58.03
78409;BME280;67697;50.750;-3.270;2023-04-03T03:56:55;102271.61;;;4.74;59.00
78409;BME280;67697;50.750;-3.270;2023-04-03T03:59:20;102273.51;;;4.27;63.04
78409;BME280;67697;50.750;-3.270;2023-04-03T04:01:46;102272.88;;;4.01;62.97
78409;BME280;67697;50.750;-3.270;2023-04-03T04:04:12;102264.83;;;4.71;61.98
78409;BME280;67697;50.750;-3.270;2023-04-03T04:06:38;102265.79;;;4.23;61.96
78409;BME280;67697;50.750;-3.270;2023-04-03T04:09:04;102259.34;;;4.25;62.14
78409;BME280;67697;50.750;-3.270;2023-04-03T04:11:29;102257.66;;;4.33;62.85
78409;BME280;67697;50.750;-3.270;2023-04-03T04:13:55;102258.95;;;3.19;64.72
78409;BME280;67697;50.750;-3.270;2023-04-03T04:16:21;102260.30;;;2.72;67.44
78409;BME280;67697;50.750;-3.270;2023-04-03T04:18:46;102253.58;;;2.78;67.70
78409;BME280;67697;50.750;-3.270;2023-04-03T04:21:12;102259.07;;;2.05;71.48
78409;BME280;67697;50.750;-3.270;2023-04-03T04:23:38;102256.07;;;1.86;70.89
78409;BME280;67697;50.750;-3.270;2023-04-03T04:26:03;102253.61;;;2.06;71.49
78409;BME280;67697;50.750;-3.270;2023-04-03T04:28:29;102248.60;;;2.29;71.76
78409;BME280;67697;50.750;-3.270;2023-04-03T04:30:54;102251.89;;;1.56;74.13
78409;BME280;67697;50.750;-3.270;2023-04-03T04:33:20;102246.40;;;1.67;74.00
78409;BME280;67697;50.750;-3.270;2023-04-03T04:35:47;102245.59;;;1.61;74.45
78409;BME280;67697;50.750;-3.270;2023-04-03T04:38:12;102240.69;;;1.59;73.40
78409;BME280;67697;50.750;-3.270;2023-04-03T04:40:37;102238.39;;;1.38;74.67
78409;BME280;67697;50.750;-3.270;2023-04-03T04:43:03;102238.60;;;1.17;76.12
78409;BME280;67697;50.750;-3.270;2023-04-03T04:45:29;102235.23;;;1.75;74.55
78409;BME280;67697;50.750;-3.270;2023-04-03T04:47:55;102230.81;;;1.58;74.34
78409;BME280;67697;50.750;-3.270;2023-04-03T04:50:20;102226.56;;;0.87;75.63
78409;BME280;67697;50.750;-3.270;2023-04-03T04:52:45;102224.02;;;1.34;75.06
78409;BME280;67697;50.750;-3.270;2023-04-03T04:55:11;102218.52;;;1.18;74.49
78409;BME280;67697;50.750;-3.270;2023-04-03T04:57:37;102213.50;;;0.74;75.64
78409;BME280;67697;50.750;-3.270;2023-04-03T05:00:04;102218.90;;;0.88;75.48
78409;BME280;67697;50.750;-3.270;2023-04-03T05:02:28;102214.08;;;0.93;76.40
78409;BME280;67697;50.750;-3.270;2023-04-03T05:04:53;102214.00;;;1.41;74.71
78409;BME280;67697;50.750;-3.270;2023-04-03T05:07:19;102221.75;;;1.17;75.70
78409;BME280;67697;50.750;-3.270;2023-04-03T05:09:44;102217.87;;;1.49;74.93
78409;BME280;67697;50.750;-3.270;2023-04-03T05:12:09;102216.59;;;0.88;75.80
78409;BME280;67697;50.750;-3.270;2023-04-03T05:14:35;102214.95;;;1.25;75.21
78409;BME280;67697;50.750;-3.270;2023-04-03T05:17:01;102218.02;;;1.08;75.92
78409;BME280;67697;50.750;-3.270;2023-04-03T05:19:27;102215.06;;;1.06;76.01
78409;BME280;67697;50.750;-3.270;2023-04-03T05:21:53;102212.95;;;1.08;74.93
78409;BME280;67697;50.750;-3.270;2023-04-03T05:24:18;102211.19;;;0.81;75.40
78409;BME280;67697;50.750;-3.270;2023-04-03T05:26:44;102215.21;;;1.11;74.16
78409;BME280;67697;50.750;-3.270;2023-04-03T05:29:09;102213.27;;;1.13;73.04
78409;BME280;67697;50.750;-3.270;2023-04-03T05:31:35;102215.95;;;0.92;73.00
78409;BME280;67697;50.750;-3.270;2023-04-03T05:34:00;102219.41;;;0.99;71.74
78409;BME280;67697;50.750;-3.270;2023-04-03T05:36:26;102221.74;;;2.35;68.66
78409;BME280;67697;50.750;-3.270;2023-04-03T05:38:52;102226.47;;;1.63;69.64
78409;BME280;67697;50.750;-3.270;2023-04-03T05:41:17;102228.13;;;1.58;69.73
78409;BME280;67697;50.750;-3.270;2023-04-03T05:43:42;102225.62;;;2.58;65.89
78409;BME280;67697;50.750;-3.270;2023-04-03T05:46:10;102228.70;;;3.36;63.52
78409;BME280;67697;50.750;-3.270;2023-04-03T05:48:33;102229.77;;;3.85;61.69
78409;BME280;67697;50.750;-3.270;2023-04-03T05:50:58;102230.15;;;3.24;62.86
78409;BME280;67697;50.750;-3.270;2023-04-03T05:53:28;102229.23;;;2.34;65.26
78409;BME280;67697;50.750;-3.270;2023-04-03T05:55:49;102235.61;;;3.03;63.54
78409;BME280;67697;50.750;-3.270;2023-04-03T05:58:15;102231.46;;;5.12;58.03
78409;BME280;67697;50.750;-3.270;2023-04-03T06:00:41;102230.60;;;5.29;56.11
78409;BME280;67697;50.750;-3.270;2023-04-03T06:03:07;102232.10;;;4.46;58.62
78409;BME280;67697;50.750;-3.270;2023-04-03T06:05:32;102240.42;;;3.61;61.48
78409;BME280;67697;50.750;-3.270;2023-04-03T06:07:58;102241.07;;;4.29;60.65
78409;BME280;67697;50.750;-3.270;2023-04-03T06:10:24;102238.05;;;4.12;58.36
78409;BME280;67697;50.750;-3.270;2023-04-03T06:12:50;102237.36;;;4.88;57.77
78409;BME280;67697;50.750;-3.270;2023-04-03T06:15:15;102239.57;;;5.23;55.73
78409;BME280;67697;50.750;-3.270;2023-04-03T06:17:41;102239.87;;;4.74;56.81
78409;BME280;67697;50.750;-3.270;2023-04-03T06:20:07;102239.01;;;5.08;55.02
78409;BME280;67697;50.750;-3.270;2023-04-03T06:22:32;102244.53;;;3.30;60.38
78409;BME280;67697;50.750;-3.270;2023-04-03T06:24:57;102238.55;;;4.84;56.53
78409;BME280;67697;50.750;-3.270;2023-04-03T06:27:23;102237.08;;;3.39;58.85
78409;BME280;67697;50.750;-3.270;2023-04-03T06:29:48;102233.03;;;5.29;54.76
78409;BME280;67697;50.750;-3.270;2023-04-03T06:32:14;102232.93;;;5.89;53.53
78409;BME280;67697;50.750;-3.270;2023-04-03T06:34:40;102235.62;;;2.94;58.80
78409;BME280;67697;50.750;-3.270;2023-04-03T06:37:06;102239.48;;;2.95;59.42
78409;BME280;67697;50.750;-3.270;2023-04-03T06:39:32;102249.06;;;0.85;64.99
78409;BME280;67697;50.750;-3.270;2023-04-03T06:41:57;102251.11;;;1.74;65.45
78409;BME280;67697;50.750;-3.270;2023-04-03T06:44:22;102249.64;;;0.98;67.54
78409;BME280;67697;50.750;-3.270;2023-04-03T06:46:48;102249.70;;;1.25;67.74
78409;BME280;67697;50.750;-3.270;2023-04-03T06:49:13;102250.69;;;1.28;68.29
78409;BME280;67697;50.750;-3.270;2023-04-03T06:51:39;102252.48;;;1.02;68.33
78409;BME280;67697;50.750;-3.270;2023-04-03T06:54:06;102257.64;;;1.26;67.67
78409;BME280;67697;50.750;-3.270;2023-04-03T06:56:30;102258.64;;;1.88;65.92
78409;BME280;67697;50.750;-3.270;2023-04-03T06:58:56;102257.81;;;2.38;64.57
78409;BME280;67697;50.750;-3.270;2023-04-03T07:01:21;102262.27;;;1.38;66.08
78409;BME280;67697;50.750;-3.270;2023-04-03T07:03:47;102260.80;;;1.90;65.94
78409;BME280;67697;50.750;-3.270;2023-04-03T07:06:12;102260.89;;;1.85;66.95
78409;BME280;67697;50.750;-3.270;2023-04-03T07:08:37;102259.40;;;1.77;67.28
78409;BME280;67697;50.750;-3.270;2023-04-03T07:11:02;102262.96;;;1.68;68.35
78409;BME280;67697;50.750;-3.270;2023-04-03T07:13:28;102259.79;;;1.69;67.89
78409;BME280;67697;50.750;-3.270;2023-04-03T07:15:54;102261.69;;;1.65;66.51
78409;BME280;67697;50.750;-3.270;2023-04-03T07:18:19;102257.61;;;2.92;63.71
78409;BME280;67697;50.750;-3.270;2023-04-03T07:20:45;102261.39;;;2.62;64.39
78409;BME280;67697;50.750;-3.270;2023-04-03T07:23:11;102263.79;;;3.61;62.64
78409;BME280;67697;50.750;-3.270;2023-04-03T07:25:40;102270.18;;;2.13;65.12
78409;BME280;67697;50.750;-3.270;2023-04-03T07:28:02;102270.03;;;3.07;62.84
78409;BME280;67697;50.750;-3.270;2023-04-03T07:30:28;102269.84;;;2.70;63.33
78409;BME280;67697;50.750;-3.270;2023-04-03T07:32:54;102281.18;;;1.70;66.15
78409;BME280;67697;50.750;-3.270;2023-04-03T07:35:19;102275.46;;;3.28;62.00
78409;BME280;67697;50.750;-3.270;2023-04-03T07:37:45;102273.85;;;3.34;62.10
78409;BME280;67697;50.750;-3.270;2023-04-03T07:40:11;102280.63;;;2.50;64.23
78409;BME280;67697;50.750;-3.270;2023-04-03T07:42:37;102275.68;;;2.84;63.72
78409;BME280;67697;50.750;-3.270;2023-04-03T07:45:03;102271.79;;;3.94;59.97
78409;BME280;67697;50.750;-3.270;2023-04-03T07:47:28;102271.11;;;4.92;58.32
78409;BME280;67697;50.750;-3.270;2023-04-03T07:49:54;102271.79;;;4.26;59.10
78409;BME280;67697;50.750;-3.270;2023-04-03T07:52:20;102277.02;;;4.13;58.58
78409;BME280;67697;50.750;-3.270;2023-04-03T07:54:46;102282.55;;;3.99;59.20
78409;BME280;67697;50.750;-3.270;2023-04-03T07:57:11;102283.10;;;3.07;62.31
78409;BME280;67697;50.750;-3.270;2023-04-03T07:59:37;102282.09;;;3.62;60.16
78409;BME280;67697;50.750;-3.270;2023-04-03T08:02:04;102288.82;;;2.32;63.58
78409;BME280;67697;50.750;-3.270;2023-04-03T08:04:29;102282.58;;;2.97;62.70
78409;BME280;67697;50.750;-3.270;2023-04-03T08:06:54;102280.74;;;3.53;61.18
78409;BME280;67697;50.750;-3.270;2023-04-03T08:09:20;102276.89;;;3.75;62.18
78409;BME280;67697;50.750;-3.270;2023-04-03T08:11:46;102278.34;;;4.21;60.18
78409;BME280;67697;50.750;-3.270;2023-04-03T08:14:12;102279.61;;;3.58;60.36
78409;BME280;67697;50.750;-3.270;2023-04-03T08:16:37;102281.97;;;2.64;61.86
78409;BME280;67697;50.750;-3.270;2023-04-03T08:19:03;102273.09;;;4.98;57.49
78409;BME280;67697;50.750;-3.270;2023-04-03T08:21:28;102278.99;;;3.22;63.48
78409;BME280;67697;50.750;-3.270;2023-04-03T08:23:54;102282.22;;;2.97;63.30
78409;BME280;67697;50.750;-3.270;2023-04-03T08:26:21;102280.57;;;3.64;61.58
78409;BME280;67697;50.750;-3.270;2023-04-03T08:28:45;102284.25;;;2.65;64.54
78409;BME280;67697;50.750;-3.270;2023-04-03T08:31:13;102275.62;;;3.38;63.08
78409;BME280;67697;50.750;-3.270;2023-04-03T08:33:37;102277.79;;;3.05;62.68
78409;BME280;67697;50.750;-3.270;2023-04-03T08:36:04;102280.41;;;3.73;60.53
78409;BME280;67697;50.750;-3.270;2023-04-03T08:38:28;102274.93;;;5.19;56.83
78409;BME280;67697;50.750;-3.270;2023-04-03T08:41:04;102281.40;;;5.15;55.93
78409;BME280;67697;50.750;-3.270;2023-04-03T08:43:30;102290.25;;;4.18;60.00
78409;BME280;67697;50.750;-3.270;2023-04-03T08:45:48;102284.09;;;5.56;58.81
78409;BME280;67697;50.750;-3.270;2023-04-03T08:48:14;102281.59;;;5.37;59.29
78409;BME280;67697;50.750;-3.270;2023-04-03T08:50:39;102278.29;;;5.81;57.61
78409;BME280;67697;50.750;-3.270;2023-04-03T08:53:03;102280.98;;;5.98;56.97
78409;BME280;67697;50.750;-3.270;2023-04-03T08:55:31;102280.39;;;4.07;60.57
78409;BME280;67697;50.750;-3.270;2023-04-03T08:57:59;102275.55;;;4.94;58.16
78409;BME280;67697;50.750;-3.270;2023-04-03T09:00:23;102275.81;;;4.33;63.13
78409;BME280;67697;50.750;-3.270;2023-04-03T09:02:47;102275.44;;;3.90;61.97
78409;BME280;67697;50.750;-3.270;2023-04-03T09:05:13;102273.87;;;3.73;61.62
78409;BME280;67697;50.750;-3.270;2023-04-03T09:07:42;102274.58;;;4.38;59.77
78409;BME280;67697;50.750;-3.270;2023-04-03T09:10:04;102273.38;;;4.22;59.04
78409;BME280;67697;50.750;-3.270;2023-04-03T09:12:34;102276.06;;;3.88;62.78
78409;BME280;67697;50.750;-3.270;2023-04-03T09:15:02;102274.54;;;4.36;60.50
78409;BME280;67697;50.750;-3.270;2023-04-03T09:17:30;102272.67;;;5.90;58.39
78409;BME280;67697;50.750;-3.270;2023-04-03T09:19:50;102272.71;;;5.31;55.96
78409;BME280;67697;50.750;-3.270;2023-04-03T09:22:17;102269.48;;;5.05;59.51
78409;BME280;67697;50.750;-3.270;2023-04-03T09:24:37;102273.25;;;5.52;58.74
78409;BME280;67697;50.750;-3.270;2023-04-03T09:27:06;102275.83;;;6.05;57.11
78409;BME280;67697;50.750;-3.270;2023-04-03T09:29:28;102277.19;;;5.97;57.93
78409;BME280;67697;50.750;-3.270;2023-04-03T09:31:56;102270.70;;;5.62;57.85
78409;BME280;67697;50.750;-3.270;2023-04-03T09:34:23;102270.07;;;4.66;58.74
78409;BME280;67697;50.750;-3.270;2023-04-03T09:36:47;102277.50;;;5.51;59.64
78409;BME280;67697;50.750;-3.270;2023-04-03T09:39:14;102276.50;;;5.44;58.60
78409;BME280;67697;50.750;-3.270;2023-04-03T09:41:37;102273.71;;;5.24;58.94
78409;BME280;67697;50.750;-3.270;2023-04-03T09:44:03;102274.18;;;6.11;56.71
78409;BME280;67697;50.750;-3.270;2023-04-03T09:46:30;102274.21;;;6.37;56.94
78409;BME280;67697;50.750;-3.270;2023-04-03T09:48:57;102270.97;;;5.56;57.92
78409;BME280;67697;50.750;-3.270;2023-04-03T09:51:19;102270.66;;;6.69;53.88
78409;BME280;67697;50.750;-3.270;2023-04-03T09:53:45;102275.55;;;6.17;53.97
78409;BME280;67697;50.750;-3.270;2023-04-03T09:56:19;102274.72;;;5.90;57.07
78409;BME280;67697;50.750;-3.270;2023-04-03T09:58:38;102274.34;;;5.87;55.93
78409;BME280;67697;50.750;-3.270;2023-04-03T10:01:03;102271.74;;;5.16;57.95
78409;BME280;67697;50.750;-3.270;2023-04-03T10:03:31;102274.59;;;5.64;58.85
78409;BME280;67697;50.750;-3.270;2023-04-03T10:05:54;102272.09;;;5.37;58.64
78409;BME280;67697;50.750;-3.270;2023-04-03T10:08:23;102272.42;;;5.39;58.62
78409;BME280;67697;50.750;-3.270;2023-04-03T10:10:46;102268.07;;;5.65;59.34
78409;BME280;67697;50.750;-3.270;2023-04-03T10:13:12;102268.08;;;5.50;59.30
78409;BME280;67697;50.750;-3.270;2023-04-03T10:15:39;102265.80;;;6.63;57.31
78409;BME280;67697;50.750;-3.270;2023-04-03T10:18:02;102267.12;;;5.73;56.68
78409;BME280;67697;50.750;-3.270;2023-04-03T10:20:31;102275.37;;;5.52;58.08
78409;BME280;67697;50.750;-3.270;2023-04-03T10:23:00;102273.33;;;4.98;59.11
78409;BME280;67697;50.750;-3.270;2023-04-03T10:25:21;102269.18;;;5.13;58.48
78409;BME280;67697;50.750;-3.270;2023-04-03T10:27:51;102271.79;;;6.30;61.64
78409;BME280;67697;50.750;-3.270;2023-04-03T10:30:19;102265.22;;;6.28;56.53
78409;BME280;67697;50.750;-3.270;2023-04-03T10:32:44;102268.19;;;6.27;58.48
78409;BME280;67697;50.750;-3.270;2023-04-03T10:35:08;102260.07;;;6.69;57.88
78409;BME280;67697;50.750;-3.270;2023-04-03T10:37:29;102260.70;;;7.23;55.73
78409;BME280;67697;50.750;-3.270;2023-04-03T10:39:56;102264.66;;;6.41;58.05
78409;BME280;67697;50.750;-3.270;2023-04-03T10:42:23;102270.07;;;5.68;60.39
78409;BME280;67697;50.750;-3.270;2023-04-03T10:44:53;102264.79;;;5.76;58.86
78409;BME280;67697;50.750;-3.270;2023-04-03T10:47:13;102270.01;;;5.06;61.25
78409;BME280;67697;50.750;-3.270;2023-04-03T10:49:42;102264.38;;;5.55;58.08
78409;BME280;67697;50.750;-3.270;2023-04-03T10:52:05;102262.37;;;5.47;61.08
78409;BME280;67697;50.750;-3.270;2023-04-03T10:54:30;102254.87;;;5.84;60.17
78409;BME280;67697;50.750;-3.270;2023-04-03T10:56:54;102257.20;;;5.32;60.38
78409;BME280;67697;50.750;-3.270;2023-04-03T10:59:25;102250.36;;;6.59;58.60
78409;BME280;67697;50.750;-3.270;2023-04-03T11:01:46;102249.12;;;6.22;59.52
78409;BME280;67697;50.750;-3.270;2023-04-03T11:04:09;102246.15;;;6.77;60.98
78409;BME280;67697;50.750;-3.270;2023-04-03T11:06:39;102246.45;;;7.26;59.49
78409;BME280;67697;50.750;-3.270;2023-04-03T11:09:02;102258.19;;;6.54;59.02
78409;BME280;67697;50.750;-3.270;2023-04-03T11:11:27;102243.62;;;7.80;57.44
78409;BME280;67697;50.750;-3.270;2023-04-03T11:13:54;102237.50;;;7.08;58.28
78409;BME280;67697;50.750;-3.270;2023-04-03T11:16:21;102239.72;;;6.60;60.23
78409;BME280;67697;50.750;-3.270;2023-04-03T11:18:46;102243.44;;;6.13;57.51
78409;BME280;67697;50.750;-3.270;2023-04-03T11:21:12;102237.44;;;6.71;57.86
78409;BME280;67697;50.750;-3.270;2023-04-03T11:23:36;102248.40;;;7.41;57.94
78409;BME280;67697;50.750;-3.270;2023-04-03T11:26:07;102239.49;;;7.05;55.13
78409;BME280;67697;50.750;-3.270;2023-04-03T11:28:25;102244.97;;;7.91;58.11
78409;BME280;67697;50.750;-3.270;2023-04-03T11:30:57;102241.23;;;8.22;55.07
78409;BME280;67697;50.750;-3.270;2023-04-03T11:33:28;102236.65;;;8.18;56.53
78409;BME280;67697;50.750;-3.270;2023-04-03T11:35:44;102247.00;;;7.27;56.78
78409;BME280;67697;50.750;-3.270;2023-04-03T11:38:17;102240.92;;;7.37;56.99
78409;BME280;67697;50.750;-3.270;2023-04-03T11:40:35;102231.83;;;8.11;53.39
78409;BME280;67697;50.750;-3.270;2023-04-03T11:43:07;102230.13;;;6.44;57.41
78409;BME280;67697;50.750;-3.270;2023-04-03T11:45:32;102226.33;;;6.90;56.04
78409;BME280;67697;50.750;-3.270;2023-04-03T11:47:51;102225.43;;;7.39;56.47
78409;BME280;67697;50.750;-3.270;2023-04-03T11:50:31;102219.36;;;6.59;54.80
78409;BME280;67697;50.750;-3.270;2023-04-03T11:52:57;102217.16;;;7.60;55.18
78409;BME280;67697;50.750;-3.270;2023-04-03T11:57:43;102219.60;;;6.94;55.48
78409;BME280;67697;50.750;-3.270;2023-04-03T11:59:58;102215.08;;;7.11;57.18
78409;BME280;67697;50.750;-3.270;2023-04-03T12:02:36;102211.51;;;7.26;55.90
78409;BME280;67697;50.750;-3.270;2023-04-03T12:07:17;102211.91;;;7.49;55.23
78409;BME280;67697;50.750;-3.270;2023-04-03T12:09:54;102205.07;;;8.54;55.83
78409;BME280;67697;50.750;-3.270;2023-04-03T12:12:22;102202.08;;;8.83;50.00
78409;BME280;67697;50.750;-3.270;2023-04-03T12:14:32;102206.27;;;8.92;53.72
78409;BME280;67697;50.750;-3.270;2023-04-03T12:16:57;102203.32;;;6.88;55.29
78409;BME280;67697;50.750;-3.270;2023-04-03T12:19:34;102201.57;;;7.76;53.61
78409;BME280;67697;50.750;-3.270;2023-04-03T12:24:23;102204.14;;;7.84;52.10
78409;BME280;67697;50.750;-3.270;2023-04-03T12:26:44;102200.10;;;7.22;53.30
78409;BME280;67697;50.750;-3.270;2023-04-03T12:29:13;102192.26;;;8.71;51.28
78409;BME280;67697;50.750;-3.270;2023-04-03T12:31:40;102194.56;;;7.13;53.01
78409;BME280;67697;50.750;-3.270;2023-04-03T12:34:09;102197.53;;;8.18;55.46
78409;BME280;67697;50.750;-3.270;2023-04-03T12:36:28;102189.49;;;7.57;51.45
78409;BME280;67697;50.750;-3.270;2023-04-03T12:38:58;102183.46;;;8.33;53.19
78409;BME280;67697;50.750;-3.270;2023-04-03T12:41:18;102183.98;;;8.56;53.75
78409;BME280;67697;50.750;-3.270;2023-04-03T12:43:44;102171.58;;;8.87;54.60
78409;BME280;67697;50.750;-3.270;2023-04-03T12:46:04;102174.11;;;8.93;54.67
78409;BME280;67697;50.750;-3.270;2023-04-03T12:48:28;102170.84;;;8.30;53.18